Terminal Aerodrome Forecast
Issued by NWS Tuscon, AZ

Home | Current Version | Previous Version | Text Only | Print | Product List | Glossary On
Versions: 1 2 3 4 5 6 7 8 9 10 11 12
211
FTUS45 KTWC 241138
TAFDUG
TAF
KDUG 241138Z 2412/2512 VRB04KT P6SM SKC
     FM241900 30008KT P6SM SCT090
     FM250300 35006KT P6SM SCT090
     FM250600 VRB04KT P6SM FEW090=

USA.gov is the U.S. government's official web portal to all federal, state and local government web resources and services.